sensor_id;sensor_type;location;lat;lon;timestamp;P1;durP1;ratioP1;P2;durP2;ratioP2
3943;SDS011;1986;52.546;13.428;2023-04-01T00:01:09;1.07;;;1.07;;
3943;SDS011;1986;52.546;13.428;2023-04-01T00:03:38;1.77;;;1.67;;
3943;SDS011;1986;52.546;13.428;2023-04-01T00:06:06;1.20;;;1.20;;
3943;SDS011;1986;52.546;13.428;2023-04-01T00:08:33;0.80;;;0.80;;
3943;SDS011;1986;52.546;13.428;2023-04-01T00:11:01;3.03;;;1.30;;
3943;SDS011;1986;52.546;13.428;2023-04-01T00:13:28;0.80;;;0.80;;
3943;SDS011;1986;52.546;13.428;2023-04-01T00:15:55;0.80;;;0.80;;
3943;SDS011;1986;52.546;13.428;2023-04-01T00:18:22;1.00;;;1.00;;
3943;SDS011;1986;52.546;13.428;2023-04-01T00:20:53;2.00;;;1.73;;
3943;SDS011;1986;52.546;13.428;2023-04-01T00:23:20;0.90;;;0.90;;
3943;SDS011;1986;52.546;13.428;2023-04-01T00:25:48;1.67;;;1.57;;
3943;SDS011;1986;52.546;13.428;2023-04-01T00:28:17;1.27;;;1.20;;
3943;SDS011;1986;52.546;13.428;2023-04-01T00:30:45;1.47;;;1.40;;
3943;SDS011;1986;52.546;13.428;2023-04-01T00:33:15;7.00;;;1.33;;
3943;SDS011;1986;52.546;13.428;2023-04-01T00:35:42;0.90;;;0.90;;
3943;SDS011;1986;52.546;13.428;2023-04-01T00:38:10;1.70;;;1.60;;
3943;SDS011;1986;52.546;13.428;2023-04-01T00:40:38;1.23;;;1.23;;
3943;SDS011;1986;52.546;13.428;2023-04-01T00:43:09;1.70;;;1.70;;
3943;SDS011;1986;52.546;13.428;2023-04-01T00:45:40;0.80;;;0.80;;
3943;SDS011;1986;52.546;13.428;2023-04-01T00:48:09;1.50;;;1.50;;
3943;SDS011;1986;52.546;13.428;2023-04-01T00:50:39;0.80;;;0.80;;
3943;SDS011;1986;52.546;13.428;2023-04-01T00:53:08;0.80;;;0.80;;
3943;SDS011;1986;52.546;13.428;2023-04-01T00:55:39;0.80;;;0.80;;
3943;SDS011;1986;52.546;13.428;2023-04-01T00:58:13;0.70;;;0.70;;
3943;SDS011;1986;52.546;13.428;2023-04-01T01:00:43;2.43;;;1.27;;
3943;SDS011;1986;52.546;13.428;2023-04-01T01:03:11;1.10;;;1.10;;
3943;SDS011;1986;52.546;13.428;2023-04-01T01:05:44;1.03;;;1.03;;
3943;SDS011;1986;52.546;13.428;2023-04-01T01:09:00;1.77;;;1.67;;
3943;SDS011;1986;52.546;13.428;2023-04-01T01:11:37;0.90;;;0.90;;
3943;SDS011;1986;52.546;13.428;2023-04-01T01:14:09;0.97;;;0.97;;
3943;SDS011;1986;52.546;13.428;2023-04-01T01:16:48;1.40;;;1.40;;
3943;SDS011;1986;52.546;13.428;2023-04-01T01:19:26;1.00;;;1.00;;
3943;SDS011;1986;52.546;13.428;2023-04-01T01:22:24;1.00;;;1.00;;
3943;SDS011;1986;52.546;13.428;2023-04-01T01:25:15;1.00;;;1.00;;
3943;SDS011;1986;52.546;13.428;2023-04-01T01:27:54;1.00;;;1.00;;
3943;SDS011;1986;52.546;13.428;2023-04-01T01:30:39;0.80;;;0.80;;
3943;SDS011;1986;52.546;13.428;2023-04-01T01:33:16;1.10;;;1.10;;
3943;SDS011;1986;52.546;13.428;2023-04-01T01:35:57;0.90;;;0.90;;
3943;SDS011;1986;52.546;13.428;2023-04-01T01:38:29;0.90;;;0.90;;
3943;SDS011;1986;52.546;13.428;2023-04-01T01:40:58;0.90;;;0.90;;
3943;SDS011;1986;52.546;13.428;2023-04-01T01:43:28;0.80;;;0.80;;
3943;SDS011;1986;52.546;13.428;2023-04-01T01:45:58;3.57;;;2.13;;
3943;SDS011;1986;52.546;13.428;2023-04-01T01:48:29;4.53;;;1.73;;
3943;SDS011;1986;52.546;13.428;2023-04-01T01:50:59;1.20;;;1.20;;
3943;SDS011;1986;52.546;13.428;2023-04-01T01:53:27;1.10;;;1.10;;
3943;SDS011;1986;52.546;13.428;2023-04-01T01:55:53;0.80;;;0.80;;
3943;SDS011;1986;52.546;13.428;2023-04-01T01:58:22;1.10;;;1.10;;
3943;SDS011;1986;52.546;13.428;2023-04-01T02:00:54;0.70;;;0.70;;
3943;SDS011;1986;52.546;13.428;2023-04-01T02:03:23;0.90;;;0.90;;
3943;SDS011;1986;52.546;13.428;2023-04-01T02:05:53;1.03;;;1.03;;
3943;SDS011;1986;52.546;13.428;2023-04-01T02:08:25;0.70;;;0.70;;
3943;SDS011;1986;52.546;13.428;2023-04-01T02:10:55;1.00;;;1.00;;
3943;SDS011;1986;52.546;13.428;2023-04-01T02:13:27;0.80;;;0.80;;
3943;SDS011;1986;52.546;13.428;2023-04-01T02:15:58;0.80;;;0.80;;
3943;SDS011;1986;52.546;13.428;2023-04-01T02:18:29;2.33;;;2.13;;
3943;SDS011;1986;52.546;13.428;2023-04-01T02:20:59;0.70;;;0.70;;
3943;SDS011;1986;52.546;13.428;2023-04-01T02:23:31;0.70;;;0.70;;
3943;SDS011;1986;52.546;13.428;2023-04-01T02:25:59;1.23;;;1.13;;
3943;SDS011;1986;52.546;13.428;2023-04-01T02:28:27;0.90;;;0.80;;
3943;SDS011;1986;52.546;13.428;2023-04-01T02:30:55;0.60;;;0.60;;
3943;SDS011;1986;52.546;13.428;2023-04-01T02:33:25;1.27;;;1.17;;
3943;SDS011;1986;52.546;13.428;2023-04-01T02:35:54;1.10;;;1.10;;
3943;SDS011;1986;52.546;13.428;2023-04-01T02:38:21;0.83;;;0.83;;
3943;SDS011;1986;52.546;13.428;2023-04-01T02:40:50;1.90;;;1.80;;
3943;SDS011;1986;52.546;13.428;2023-04-01T02:43:22;0.70;;;0.70;;
3943;SDS011;1986;52.546;13.428;2023-04-01T02:45:49;1.10;;;1.00;;
3943;SDS011;1986;52.546;13.428;2023-04-01T02:48:16;0.87;;;0.87;;
3943;SDS011;1986;52.546;13.428;2023-04-01T02:50:46;0.70;;;0.70;;
3943;SDS011;1986;52.546;13.428;2023-04-01T02:53:13;0.60;;;0.60;;
3943;SDS011;1986;52.546;13.428;2023-04-01T02:55:40;1.43;;;1.13;;
3943;SDS011;1986;52.546;13.428;2023-04-01T02:58:08;2.00;;;2.00;;
3943;SDS011;1986;52.546;13.428;2023-04-01T03:00:35;3.00;;;2.90;;
3943;SDS011;1986;52.546;13.428;2023-04-01T03:03:02;3.23;;;3.13;;
3943;SDS011;1986;52.546;13.428;2023-04-01T03:05:30;2.90;;;2.90;;
3943;SDS011;1986;52.546;13.428;2023-04-01T03:07:57;4.67;;;4.57;;
3943;SDS011;1986;52.546;13.428;2023-04-01T03:10:24;2.80;;;2.80;;
3943;SDS011;1986;52.546;13.428;2023-04-01T03:12:51;3.20;;;3.20;;
3943;SDS011;1986;52.546;13.428;2023-04-01T03:15:19;4.00;;;3.70;;
3943;SDS011;1986;52.546;13.428;2023-04-01T03:17:46;3.20;;;3.20;;
3943;SDS011;1986;52.546;13.428;2023-04-01T03:20:13;4.07;;;3.97;;
3943;SDS011;1986;52.546;13.428;2023-04-01T03:22:40;3.80;;;3.70;;
3943;SDS011;1986;52.546;13.428;2023-04-01T03:25:08;3.40;;;3.40;;
3943;SDS011;1986;52.546;13.428;2023-04-01T03:27:36;3.33;;;3.23;;
3943;SDS011;1986;52.546;13.428;2023-04-01T03:30:03;2.53;;;2.53;;
3943;SDS011;1986;52.546;13.428;2023-04-01T03:32:32;3.50;;;3.50;;
3943;SDS011;1986;52.546;13.428;2023-04-01T03:34:59;3.40;;;3.40;;
3943;SDS011;1986;52.546;13.428;2023-04-01T03:37:26;3.90;;;3.90;;
3943;SDS011;1986;52.546;13.428;2023-04-01T03:39:53;4.13;;;3.93;;
3943;SDS011;1986;52.546;13.428;2023-04-01T03:42:20;4.43;;;4.27;;
3943;SDS011;1986;52.546;13.428;2023-04-01T03:44:47;3.37;;;3.37;;
3943;SDS011;1986;52.546;13.428;2023-04-01T03:47:14;4.00;;;4.00;;
3943;SDS011;1986;52.546;13.428;2023-04-01T03:49:43;29.67;;;6.63;;
3943;SDS011;1986;52.546;13.428;2023-04-01T03:52:10;4.90;;;4.80;;
3943;SDS011;1986;52.546;13.428;2023-04-01T03:54:37;4.17;;;4.17;;
3943;SDS011;1986;52.546;13.428;2023-04-01T03:57:05;4.20;;;4.20;;
3943;SDS011;1986;52.546;13.428;2023-04-01T03:59:32;4.10;;;4.10;;
3943;SDS011;1986;52.546;13.428;2023-04-01T04:01:59;4.93;;;4.73;;
3943;SDS011;1986;52.546;13.428;2023-04-01T04:04:26;4.50;;;4.40;;
3943;SDS011;1986;52.546;13.428;2023-04-01T04:06:55;4.83;;;4.73;;
3943;SDS011;1986;52.546;13.428;2023-04-01T04:09:22;5.30;;;5.20;;
3943;SDS011;1986;52.546;13.428;2023-04-01T04:11:49;5.03;;;4.93;;
3943;SDS011;1986;52.546;13.428;2023-04-01T04:14:16;5.97;;;5.87;;
3943;SDS011;1986;52.546;13.428;2023-04-01T04:16:43;5.20;;;5.10;;
3943;SDS011;1986;52.546;13.428;2023-04-01T04:19:11;10.97;;;5.00;;
3943;SDS011;1986;52.546;13.428;2023-04-01T04:21:38;4.30;;;4.30;;
3943;SDS011;1986;52.546;13.428;2023-04-01T04:24:07;4.90;;;4.80;;
3943;SDS011;1986;52.546;13.428;2023-04-01T04:26:34;4.83;;;4.73;;
3943;SDS011;1986;52.546;13.428;2023-04-01T04:29:02;5.80;;;5.60;;
3943;SDS011;1986;52.546;13.428;2023-04-01T04:31:29;5.00;;;4.90;;
3943;SDS011;1986;52.546;13.428;2023-04-01T04:33:56;4.80;;;4.70;;
3943;SDS011;1986;52.546;13.428;2023-04-01T04:36:24;5.60;;;5.50;;
3943;SDS011;1986;52.546;13.428;2023-04-01T04:38:51;5.27;;;5.17;;
3943;SDS011;1986;52.546;13.428;2023-04-01T04:41:19;5.97;;;5.47;;
3943;SDS011;1986;52.546;13.428;2023-04-01T04:43:48;4.43;;;4.43;;
3943;SDS011;1986;52.546;13.428;2023-04-01T04:46:17;4.87;;;4.87;;
3943;SDS011;1986;52.546;13.428;2023-04-01T04:48:44;5.40;;;5.30;;
3943;SDS011;1986;52.546;13.428;2023-04-01T04:51:14;5.30;;;5.20;;
3943;SDS011;1986;52.546;13.428;2023-04-01T04:53:42;7.40;;;7.20;;
3943;SDS011;1986;52.546;13.428;2023-04-01T04:56:10;8.33;;;8.23;;
3943;SDS011;1986;52.546;13.428;2023-04-01T04:58:39;10.60;;;10.40;;
3943;SDS011;1986;52.546;13.428;2023-04-01T05:01:06;12.73;;;12.33;;
3943;SDS011;1986;52.546;13.428;2023-04-01T05:03:35;12.23;;;11.93;;
3943;SDS011;1986;52.546;13.428;2023-04-01T05:06:03;12.30;;;12.00;;
3943;SDS011;1986;52.546;13.428;2023-04-01T05:08:31;12.60;;;12.30;;
3943;SDS011;1986;52.546;13.428;2023-04-01T05:10:59;12.40;;;12.10;;
3943;SDS011;1986;52.546;13.428;2023-04-01T05:13:26;13.10;;;12.50;;
3943;SDS011;1986;52.546;13.428;2023-04-01T05:15:54;13.53;;;13.07;;
3943;SDS011;1986;52.546;13.428;2023-04-01T05:18:21;13.00;;;12.60;;
3943;SDS011;1986;52.546;13.428;2023-04-01T05:20:49;12.80;;;12.40;;
3943;SDS011;1986;52.546;13.428;2023-04-01T05:23:18;12.73;;;12.43;;
3943;SDS011;1986;52.546;13.428;2023-04-01T05:25:46;13.20;;;12.80;;
3943;SDS011;1986;52.546;13.428;2023-04-01T05:28:13;13.97;;;13.43;;
3943;SDS011;1986;52.546;13.428;2023-04-01T05:30:40;13.93;;;13.33;;
3943;SDS011;1986;52.546;13.428;2023-04-01T05:33:09;13.17;;;12.77;;
3943;SDS011;1986;52.546;13.428;2023-04-01T05:35:37;12.80;;;12.50;;
3943;SDS011;1986;52.546;13.428;2023-04-01T05:38:04;14.00;;;13.53;;
3943;SDS011;1986;52.546;13.428;2023-04-01T05:40:31;13.60;;;13.03;;
3943;SDS011;1986;52.546;13.428;2023-04-01T05:42:59;11.40;;;11.20;;
3943;SDS011;1986;52.546;13.428;2023-04-01T05:45:26;11.63;;;11.33;;
3943;SDS011;1986;52.546;13.428;2023-04-01T05:47:53;11.47;;;11.20;;
3943;SDS011;1986;52.546;13.428;2023-04-01T05:50:21;12.60;;;12.20;;
3943;SDS011;1986;52.546;13.428;2023-04-01T05:52:49;12.67;;;12.30;;
3943;SDS011;1986;52.546;13.428;2023-04-01T05:55:16;11.50;;;11.27;;
3943;SDS011;1986;52.546;13.428;2023-04-01T05:57:44;11.10;;;10.90;;
3943;SDS011;1986;52.546;13.428;2023-04-01T06:00:13;10.70;;;10.50;;
3943;SDS011;1986;52.546;13.428;2023-04-01T06:02:41;9.90;;;9.70;;
3943;SDS011;1986;52.546;13.428;2023-04-01T06:05:13;10.10;;;9.90;;
3943;SDS011;1986;52.546;13.428;2023-04-01T06:07:44;10.37;;;10.03;;
3943;SDS011;1986;52.546;13.428;2023-04-01T06:10:12;10.63;;;10.23;;
3943;SDS011;1986;52.546;13.428;2023-04-01T06:15:34;9.50;;;9.40;;
3943;SDS011;1986;52.546;13.428;2023-04-01T06:18:27;9.10;;;9.00;;
3943;SDS011;1986;52.546;13.428;2023-04-01T06:24:27;9.77;;;9.57;;
3943;SDS011;1986;52.546;13.428;2023-04-01T06:27:09;8.90;;;8.80;;
3943;SDS011;1986;52.546;13.428;2023-04-01T06:29:50;11.17;;;10.70;;
3943;SDS011;1986;52.546;13.428;2023-04-01T06:32:32;8.90;;;8.80;;
3943;SDS011;1986;52.546;13.428;2023-04-01T06:38:30;9.10;;;9.00;;
3943;SDS011;1986;52.546;13.428;2023-04-01T06:41:21;9.67;;;9.57;;
3943;SDS011;1986;52.546;13.428;2023-04-01T06:44:13;9.10;;;9.00;;
3943;SDS011;1986;52.546;13.428;2023-04-01T06:46:45;10.83;;;10.60;;
3943;SDS011;1986;52.546;13.428;2023-04-01T06:52:10;9.13;;;9.03;;
3943;SDS011;1986;52.546;13.428;2023-04-01T06:54:47;10.40;;;10.20;;
3943;SDS011;1986;52.546;13.428;2023-04-01T06:57:20;10.93;;;10.63;;
3943;SDS011;1986;52.546;13.428;2023-04-01T06:59:54;10.13;;;9.93;;
3943;SDS011;1986;52.546;13.428;2023-04-01T07:02:24;9.93;;;9.73;;
3943;SDS011;1986;52.546;13.428;2023-04-01T07:04:58;9.60;;;9.40;;
3943;SDS011;1986;52.546;13.428;2023-04-01T07:07:30;10.00;;;9.80;;
3943;SDS011;1986;52.546;13.428;2023-04-01T07:10:02;8.70;;;8.60;;
3943;SDS011;1986;52.546;13.428;2023-04-01T07:12:43;8.70;;;8.60;;
3943;SDS011;1986;52.546;13.428;2023-04-01T07:15:16;8.60;;;8.50;;
3943;SDS011;1986;52.546;13.428;2023-04-01T07:17:46;9.73;;;9.53;;
3943;SDS011;1986;52.546;13.428;2023-04-01T07:20:20;8.50;;;8.40;;
3943;SDS011;1986;52.546;13.428;2023-04-01T07:22:51;8.40;;;8.30;;
3943;SDS011;1986;52.546;13.428;2023-04-01T07:25:23;8.17;;;7.97;;
3943;SDS011;1986;52.546;13.428;2023-04-01T07:27:55;8.60;;;8.40;;
3943;SDS011;1986;52.546;13.428;2023-04-01T07:30:26;8.33;;;7.93;;
3943;SDS011;1986;52.546;13.428;2023-04-01T07:33:01;7.67;;;7.37;;
3943;SDS011;1986;52.546;13.428;2023-04-01T07:35:35;7.73;;;7.63;;
3943;SDS011;1986;52.546;13.428;2023-04-01T07:38:09;8.20;;;8.10;;
3943;SDS011;1986;52.546;13.428;2023-04-01T07:40:45;8.80;;;8.70;;
3943;SDS011;1986;52.546;13.428;2023-04-01T07:43:21;11.10;;;10.87;;
3943;SDS011;1986;52.546;13.428;2023-04-01T07:46:02;15.30;;;14.80;;
3943;SDS011;1986;52.546;13.428;2023-04-01T07:48:38;14.60;;;14.10;;
3943;SDS011;1986;52.546;13.428;2023-04-01T07:51:15;14.70;;;14.20;;
3943;SDS011;1986;52.546;13.428;2023-04-01T07:53:48;13.20;;;12.80;;
3943;SDS011;1986;52.546;13.428;2023-04-01T07:56:18;13.03;;;12.63;;
3943;SDS011;1986;52.546;13.428;2023-04-01T07:58:55;13.20;;;12.80;;
3943;SDS011;1986;52.546;13.428;2023-04-01T08:01:30;12.33;;;12.03;;
3943;SDS011;1986;52.546;13.428;2023-04-01T08:04:05;12.40;;;12.03;;
3943;SDS011;1986;52.546;13.428;2023-04-01T08:06:45;11.13;;;10.87;;
3943;SDS011;1986;52.546;13.428;2023-04-01T08:09:19;10.90;;;10.60;;
3943;SDS011;1986;52.546;13.428;2023-04-01T08:11:54;10.90;;;10.70;;
3943;SDS011;1986;52.546;13.428;2023-04-01T08:14:33;10.00;;;9.80;;
3943;SDS011;1986;52.546;13.428;2023-04-01T08:17:08;10.67;;;10.27;;
3943;SDS011;1986;52.546;13.428;2023-04-01T08:19:46;10.60;;;10.20;;
3943;SDS011;1986;52.546;13.428;2023-04-01T08:22:25;7.97;;;7.87;;
3943;SDS011;1986;52.546;13.428;2023-04-01T08:24:56;8.43;;;8.03;;
3943;SDS011;1986;52.546;13.428;2023-04-01T08:27:28;5.40;;;5.40;;
3943;SDS011;1986;52.546;13.428;2023-04-01T08:30:03;7.33;;;7.10;;
3943;SDS011;1986;52.546;13.428;2023-04-01T08:32:41;5.83;;;5.70;;
3943;SDS011;1986;52.546;13.428;2023-04-01T08:35:14;4.60;;;4.60;;
3943;SDS011;1986;52.546;13.428;2023-04-01T08:37:47;7.90;;;7.60;;
3943;SDS011;1986;52.546;13.428;2023-04-01T08:40:22;5.27;;;5.00;;
3943;SDS011;1986;52.546;13.428;2023-04-01T08:43:13;5.10;;;4.93;;
3943;SDS011;1986;52.546;13.428;2023-04-01T08:45:56;6.10;;;5.60;;
3943;SDS011;1986;52.546;13.428;2023-04-01T08:48:37;5.93;;;5.63;;
3943;SDS011;1986;52.546;13.428;2023-04-01T08:51:47;6.50;;;6.27;;
3943;SDS011;1986;52.546;13.428;2023-04-01T08:57:22;5.93;;;5.67;;
3943;SDS011;1986;52.546;13.428;2023-04-01T09:00:05;6.43;;;6.00;;
3943;SDS011;1986;52.546;13.428;2023-04-01T09:02:56;11.10;;;5.87;;
3943;SDS011;1986;52.546;13.428;2023-04-01T09:06:01;6.20;;;5.80;;
3943;SDS011;1986;52.546;13.428;2023-04-01T09:08:55;7.20;;;6.90;;
3943;SDS011;1986;52.546;13.428;2023-04-01T09:11:44;5.23;;;5.13;;
3943;SDS011;1986;52.546;13.428;2023-04-01T09:14:40;9.00;;;8.27;;
3943;SDS011;1986;52.546;13.428;2023-04-01T09:20:44;5.60;;;5.50;;
3943;SDS011;1986;52.546;13.428;2023-04-01T09:23:26;7.20;;;7.00;;
3943;SDS011;1986;52.546;13.428;2023-04-01T09:26:07;7.70;;;7.03;;
3943;SDS011;1986;52.546;13.428;2023-04-01T09:28:44;11.37;;;8.37;;
3943;SDS011;1986;52.546;13.428;2023-04-01T09:31:25;6.60;;;6.17;;
3943;SDS011;1986;52.546;13.428;2023-04-01T09:34:22;6.10;;;5.80;;
3943;SDS011;1986;52.546;13.428;2023-04-01T09:37:02;6.37;;;6.07;;
3943;SDS011;1986;52.546;13.428;2023-04-01T09:39:45;5.67;;;5.57;;
3943;SDS011;1986;52.546;13.428;2023-04-01T09:42:31;6.87;;;6.47;;
3943;SDS011;1986;52.546;13.428;2023-04-01T09:45:09;5.43;;;5.23;;
3943;SDS011;1986;52.546;13.428;2023-04-01T09:47:54;10.00;;;6.87;;
3943;SDS011;1986;52.546;13.428;2023-04-01T09:50:31;6.07;;;5.60;;
3943;SDS011;1986;52.546;13.428;2023-04-01T09:53:17;4.90;;;4.80;;
3943;SDS011;1986;52.546;13.428;2023-04-01T09:56:00;5.93;;;5.63;;
3943;SDS011;1986;52.546;13.428;2023-04-01T09:59:01;7.43;;;6.93;;
3943;SDS011;1986;52.546;13.428;2023-04-01T10:01:57;5.20;;;5.07;;
3943;SDS011;1986;52.546;13.428;2023-04-01T10:05:04;6.57;;;6.00;;
3943;SDS011;1986;52.546;13.428;2023-04-01T10:11:05;6.40;;;6.03;;
3943;SDS011;1986;52.546;13.428;2023-04-01T10:13:59;4.30;;;4.20;;
3943;SDS011;1986;52.546;13.428;2023-04-01T10:17:03;6.27;;;5.90;;
3943;SDS011;1986;52.546;13.428;2023-04-01T10:19:55;7.57;;;7.10;;
3943;SDS011;1986;52.546;13.428;2023-04-01T10:22:40;5.17;;;4.93;;
3943;SDS011;1986;52.546;13.428;2023-04-01T10:25:53;5.43;;;5.07;;
3943;SDS011;1986;52.546;13.428;2023-04-01T10:28:37;5.33;;;5.23;;
3943;SDS011;1986;52.546;13.428;2023-04-01T10:31:42;6.97;;;6.47;;
3943;SDS011;1986;52.546;13.428;2023-04-01T10:34:39;5.87;;;5.63;;
3943;SDS011;1986;52.546;13.428;2023-04-01T10:37:39;7.50;;;5.43;;
3943;SDS011;1986;52.546;13.428;2023-04-01T10:40:37;7.80;;;7.17;;
3943;SDS011;1986;52.546;13.428;2023-04-01T10:46:49;6.20;;;5.30;;
3943;SDS011;1986;52.546;13.428;2023-04-01T10:49:47;3.97;;;3.77;;
3943;SDS011;1986;52.546;13.428;2023-04-01T10:55:50;6.23;;;5.70;;
3943;SDS011;1986;52.546;13.428;2023-04-01T11:01:33;4.93;;;4.73;;
3943;SDS011;1986;52.546;13.428;2023-04-01T11:04:43;4.83;;;4.53;;
3943;SDS011;1986;52.546;13.428;2023-04-01T11:07:43;5.57;;;5.13;;
3943;SDS011;1986;52.546;13.428;2023-04-01T11:13:59;5.33;;;4.90;;
3943;SDS011;1986;52.546;13.428;2023-04-01T11:23:57;7.20;;;3.43;;
3943;SDS011;1986;52.546;13.428;2023-04-01T11:26:51;4.83;;;3.60;;
3943;SDS011;1986;52.546;13.428;2023-04-01T11:29:41;3.67;;;3.47;;
3943;SDS011;1986;52.546;13.428;2023-04-01T11:32:20;5.70;;;3.73;;
3943;SDS011;1986;52.546;13.428;2023-04-01T11:38:24;5.50;;;4.83;;
3943;SDS011;1986;52.546;13.428;2023-04-01T11:41:08;7.80;;;4.53;;
3943;SDS011;1986;52.546;13.428;2023-04-01T11:43:54;3.83;;;3.53;;
3943;SDS011;1986;52.546;13.428;2023-04-01T11:46:38;3.50;;;3.20;;
3943;SDS011;1986;52.546;13.428;2023-04-01T11:49:23;14.53;;;4.83;;
3943;SDS011;1986;52.546;13.428;2023-04-01T11:52:03;5.30;;;3.67;;
3943;SDS011;1986;52.546;13.428;2023-04-01T11:54:45;7.00;;;4.17;;
3943;SDS011;1986;52.546;13.428;2023-04-01T11:57:34;5.40;;;4.90;;
3943;SDS011;1986;52.546;13.428;2023-04-01T12:00:14;6.53;;;5.93;;
3943;SDS011;1986;52.546;13.428;2023-04-01T12:03:09;4.00;;;3.70;;
3943;SDS011;1986;52.546;13.428;2023-04-01T12:05:48;9.23;;;4.73;;
3943;SDS011;1986;52.546;13.428;2023-04-01T12:08:48;5.33;;;4.67;;
3943;SDS011;1986;52.546;13.428;2023-04-01T12:11:24;8.43;;;5.87;;
3943;SDS011;1986;52.546;13.428;2023-04-01T12:20:22;7.33;;;6.47;;
3943;SDS011;1986;52.546;13.428;2023-04-01T12:23:13;6.90;;;6.33;;
3943;SDS011;1986;52.546;13.428;2023-04-01T12:28:58;7.20;;;6.80;;
3943;SDS011;1986;52.546;13.428;2023-04-01T12:31:42;5.73;;;5.43;;
3943;SDS011;1986;52.546;13.428;2023-04-01T12:34:24;7.63;;;7.00;;
3943;SDS011;1986;52.546;13.428;2023-04-01T12:37:15;9.27;;;8.50;;
3943;SDS011;1986;52.546;13.428;2023-04-01T12:39:56;7.20;;;6.50;;
3943;SDS011;1986;52.546;13.428;2023-04-01T12:42:36;9.53;;;8.10;;
3943;SDS011;1986;52.546;13.428;2023-04-01T12:45:30;6.20;;;5.77;;
3943;SDS011;1986;52.546;13.428;2023-04-01T12:48:08;5.70;;;5.50;;
3943;SDS011;1986;52.546;13.428;2023-04-01T12:57:26;5.70;;;5.60;;
3943;SDS011;1986;52.546;13.428;2023-04-01T13:00:11;13.13;;;8.87;;
3943;SDS011;1986;52.546;13.428;2023-04-01T13:03:04;9.03;;;8.40;;
3943;SDS011;1986;52.546;13.428;2023-04-01T13:06:24;9.67;;;7.90;;
3943;SDS011;1986;52.546;13.428;2023-04-01T13:09:19;11.70;;;10.70;;
3943;SDS011;1986;52.546;13.428;2023-04-01T13:12:20;8.10;;;7.60;;
3943;SDS011;1986;52.546;13.428;2023-04-01T13:15:11;8.20;;;7.50;;
3943;SDS011;1986;52.546;13.428;2023-04-01T13:17:50;8.60;;;7.80;;
3943;SDS011;1986;52.546;13.428;2023-04-01T13:20:23;13.40;;;12.00;;
3943;SDS011;1986;52.546;13.428;2023-04-01T13:23:05;14.63;;;10.00;;
3943;SDS011;1986;52.546;13.428;2023-04-01T13:25:46;11.30;;;10.27;;
3943;SDS011;1986;52.546;13.428;2023-04-01T13:34:19;10.17;;;9.37;;
3943;SDS011;1986;52.546;13.428;2023-04-01T13:37:13;9.13;;;8.67;;
3943;SDS011;1986;52.546;13.428;2023-04-01T13:39:55;10.60;;;9.67;;
3943;SDS011;1986;52.546;13.428;2023-04-01T13:42:35;12.87;;;11.60;;
3943;SDS011;1986;52.546;13.428;2023-04-01T13:45:12;9.53;;;8.83;;
3943;SDS011;1986;52.546;13.428;2023-04-01T13:54:30;20.00;;;13.33;;
3943;SDS011;1986;52.546;13.428;2023-04-01T13:57:30;10.40;;;9.63;;
3943;SDS011;1986;52.546;13.428;2023-04-01T14:00:12;12.87;;;11.37;;
3943;SDS011;1986;52.546;13.428;2023-04-01T14:02:55;9.97;;;9.57;;
3943;SDS011;1986;52.546;13.428;2023-04-01T14:05:44;11.33;;;10.73;;
3943;SDS011;1986;52.546;13.428;2023-04-01T14:11:21;14.10;;;12.87;;
3943;SDS011;1986;52.546;13.428;2023-04-01T14:13:59;13.37;;;12.40;;
3943;SDS011;1986;52.546;13.428;2023-04-01T14:16:55;12.67;;;11.97;;
3943;SDS011;1986;52.546;13.428;2023-04-01T14:22:52;10.90;;;10.50;;
3943;SDS011;1986;52.546;13.428;2023-04-01T14:25:35;12.37;;;11.23;;
3943;SDS011;1986;52.546;13.428;2023-04-01T14:28:18;10.53;;;10.03;;
3943;SDS011;1986;52.546;13.428;2023-04-01T14:30:54;8.70;;;8.50;;
3943;SDS011;1986;52.546;13.428;2023-04-01T14:33:33;7.60;;;7.50;;
3943;SDS011;1986;52.546;13.428;2023-04-01T14:36:28;9.80;;;9.17;;
3943;SDS011;1986;52.546;13.428;2023-04-01T14:39:12;12.43;;;9.53;;
3943;SDS011;1986;52.546;13.428;2023-04-01T14:41:50;8.50;;;8.03;;
3943;SDS011;1986;52.546;13.428;2023-04-01T14:44:35;7.80;;;7.50;;
3943;SDS011;1986;52.546;13.428;2023-04-01T14:47:30;6.30;;;6.10;;
3943;SDS011;1986;52.546;13.428;2023-04-01T14:50:11;7.63;;;6.63;;
3943;SDS011;1986;52.546;13.428;2023-04-01T14:52:42;5.40;;;4.50;;
3943;SDS011;1986;52.546;13.428;2023-04-01T14:55:19;9.57;;;6.20;;
3943;SDS011;1986;52.546;13.428;2023-04-01T14:57:58;9.33;;;8.23;;
3943;SDS011;1986;52.546;13.428;2023-04-01T15:00:46;6.33;;;5.90;;
3943;SDS011;1986;52.546;13.428;2023-04-01T15:03:23;4.40;;;4.10;;
3943;SDS011;1986;52.546;13.428;2023-04-01T15:05:56;7.30;;;5.33;;
3943;SDS011;1986;52.546;13.428;2023-04-01T15:08:42;4.30;;;4.10;;
3943;SDS011;1986;52.546;13.428;2023-04-01T15:11:25;3.77;;;3.67;;
3943;SDS011;1986;52.546;13.428;2023-04-01T15:14:05;5.27;;;4.77;;
3943;SDS011;1986;52.546;13.428;2023-04-01T15:16:47;8.20;;;5.43;;
3943;SDS011;1986;52.546;13.428;2023-04-01T15:19:24;4.00;;;3.70;;
3943;SDS011;1986;52.546;13.428;2023-04-01T15:22:06;5.03;;;4.77;;
3943;SDS011;1986;52.546;13.428;2023-04-01T15:24:47;4.27;;;3.63;;
3943;SDS011;1986;52.546;13.428;2023-04-01T15:27:22;7.13;;;5.80;;
3943;SDS011;1986;52.546;13.428;2023-04-01T15:30:05;8.10;;;6.20;;
3943;SDS011;1986;52.546;13.428;2023-04-01T15:33:06;5.07;;;4.67;;
3943;SDS011;1986;52.546;13.428;2023-04-01T15:36:00;7.17;;;5.33;;
3943;SDS011;1986;52.546;13.428;2023-04-01T15:38:48;4.20;;;3.97;;
3943;SDS011;1986;52.546;13.428;2023-04-01T15:41:19;6.60;;;3.20;;
3943;SDS011;1986;52.546;13.428;2023-04-01T15:43:50;10.43;;;7.13;;
3943;SDS011;1986;52.546;13.428;2023-04-01T15:46:29;4.97;;;4.73;;
3943;SDS011;1986;52.546;13.428;2023-04-01T15:49:24;5.73;;;5.17;;
3943;SDS011;1986;52.546;13.428;2023-04-01T15:52:06;4.90;;;4.70;;
3943;SDS011;1986;52.546;13.428;2023-04-01T15:55:10;7.10;;;6.80;;
3943;SDS011;1986;52.546;13.428;2023-04-01T15:57:50;7.20;;;6.80;;
3943;SDS011;1986;52.546;13.428;2023-04-01T16:00:30;9.00;;;8.10;;
3943;SDS011;1986;52.546;13.428;2023-04-01T16:03:10;9.10;;;8.40;;
3943;SDS011;1986;52.546;13.428;2023-04-01T16:05:47;12.17;;;7.77;;
3943;SDS011;1986;52.546;13.428;2023-04-01T16:08:31;6.33;;;6.03;;
3943;SDS011;1986;52.546;13.428;2023-04-01T16:11:20;10.23;;;7.67;;
3943;SDS011;1986;52.546;13.428;2023-04-01T16:13:54;9.50;;;8.30;;
3943;SDS011;1986;52.546;13.428;2023-04-01T16:16:35;8.20;;;7.70;;
3943;SDS011;1986;52.546;13.428;2023-04-01T16:19:17;7.20;;;6.80;;
3943;SDS011;1986;52.546;13.428;2023-04-01T16:22:08;6.10;;;5.70;;
3943;SDS011;1986;52.546;13.428;2023-04-01T16:24:44;6.80;;;6.20;;
3943;SDS011;1986;52.546;13.428;2023-04-01T16:27:18;8.93;;;4.90;;
3943;SDS011;1986;52.546;13.428;2023-04-01T16:29:52;5.57;;;4.70;;
3943;SDS011;1986;52.546;13.428;2023-04-01T16:32:35;8.13;;;6.03;;
3943;SDS011;1986;52.546;13.428;2023-04-01T16:35:29;5.00;;;4.13;;
3943;SDS011;1986;52.546;13.428;2023-04-01T16:38:08;3.83;;;3.63;;
3943;SDS011;1986;52.546;13.428;2023-04-01T16:40:44;4.93;;;3.00;;
3943;SDS011;1986;52.546;13.428;2023-04-01T16:43:20;5.03;;;4.60;;
3943;SDS011;1986;52.546;13.428;2023-04-01T16:45:54;2.40;;;2.03;;
3943;SDS011;1986;52.546;13.428;2023-04-01T16:48:36;3.80;;;3.53;;
3943;SDS011;1986;52.546;13.428;2023-04-01T16:51:18;4.20;;;3.30;;
3943;SDS011;1986;52.546;13.428;2023-04-01T16:53:48;3.43;;;3.13;;
3943;SDS011;1986;52.546;13.428;2023-04-01T16:56:20;4.90;;;4.10;;
3943;SDS011;1986;52.546;13.428;2023-04-01T16:58:55;3.87;;;3.60;;
3943;SDS011;1986;52.546;13.428;2023-04-01T17:01:29;3.33;;;3.10;;
3943;SDS011;1986;52.546;13.428;2023-04-01T17:04:04;8.30;;;4.80;;
3943;SDS011;1986;52.546;13.428;2023-04-01T17:06:39;4.57;;;4.20;;
3943;SDS011;1986;52.546;13.428;2023-04-01T17:09:17;3.70;;;3.50;;
3943;SDS011;1986;52.546;13.428;2023-04-01T17:11:56;3.77;;;3.13;;
3943;SDS011;1986;52.546;13.428;2023-04-01T17:14:30;5.10;;;4.80;;
3943;SDS011;1986;52.546;13.428;2023-04-01T17:17:15;5.20;;;4.90;;